Latest Coastal Weather Observations for Karratha

IDW60701

Issued at 6:52 pm WST Monday 3 August 2015 (issued every 10 minutes, with the page automatically refreshed every 10 minutes)

About coastal observations | Map of coastal stations | Coastal observations for WA | Marine services | Other Formats
Station Details ID: 004083 Name: KARRATHA AERO Lat: -20.71 Lon: 116.77 Height: 5.3 m
Data from the previous 72 hours. | See also: Recent months at Karratha
Date/Time
WST
Temp

°C
Wind Pressure Rain
since 9am
mm
Weather Cloud Vis
km
Sea
Height
m
Swell
Dir
 
Speed
knots
Gust
knots
hPa Trend Height
m
Period
s
Dir
03/06:30pm 22.2 ENE 6 7 1019.1 - 0.0 - - 10 - - - -
03/06:00pm 23.2 NE 7 8 1018.8 - 0.0 - - 10 - - - -
03/05:30pm 25.0 NE 8 10 1018.6 - 0.0 - - 10 - - - -
03/05:00pm 25.6 NE 9 11 1018.3 - 0.0 - - 10 - - - -
03/04:30pm 26.2 NE 11 13 1018.2 - 0.0 - - 10 - - - -
03/04:00pm 26.6 NE 11 15 1018.1 - 0.0 - - 10 - - - -
03/03:30pm 27.2 NE 12 16 1018.2 - 0.0 - - 10 - - - -
03/03:00pm 26.9 NE 13 16 1018.3 - 0.0 - - 10 - - - -
03/02:30pm 27.8 NE 13 15 1018.5 - 0.0 - - 10 - - - -
03/02:00pm 27.2 NE 13 16 1018.8 - 0.0 - - 10 - - - -
03/01:30pm 25.8 NE 12 15 1019.2 - 0.0 - - 10 - - - -
03/01:00pm 26.6 NE 14 20 1019.8 - 0.0 - - 10 - - - -
03/12:30pm 26.8 ENE 15 18 1020.2 - 0.0 - - 10 - - - -
03/12:00pm 27.3 ENE 16 21 1020.7 - 0.0 - - 10 - - - -
03/11:30am 26.5 E 19 24 1021.1 - 0.0 - - 10 - - - -
03/11:00am 26.3 ENE 17 21 1021.6 - 0.0 - - 10 - - - -
03/10:30am 25.5 E 17 22 1021.9 - 0.0 - - 10 - - - -
03/10:00am 25.0 E 18 23 1021.9 - 0.0 - - 10 - - - -
03/09:30am 24.7 E 15 21 1021.8 - 0.0 - - 10 - - - -
03/09:00am 23.7 E 17 23 1021.5 - 0.0 - - 10 - - - -
03/08:30am 22.5 ESE 15 22 1021.0 - 0.0 - - 10 - - - -
03/08:00am 21.9 ESE 15 19 1020.7 - 0.0 - - 10 - - - -
03/07:30am 21.1 ESE 17 21 1020.3 - 0.0 - - 10 - - - -
03/07:00am 20.8 ESE 17 21 1020.0 - 0.0 - - 10 - - - -
03/06:30am 20.8 ESE 17 23 1019.3 - 0.0 - - 10 - - - -
03/06:00am 20.9 ESE 18 23 1018.8 - 0.0 - - 10 - - - -
03/05:30am 21.4 ESE 20 25 1018.3 - 0.0 - - 10 - - - -
03/05:00am 21.6 ESE 18 24 1017.9 - 0.0 - - 10 - - - -
03/04:30am 21.8 ESE 18 23 1017.6 - 0.0 - - 10 - - - -
03/04:00am 21.5 ESE 13 17 1017.7 - 0.0 - - 10 - - - -
03/03:30am 19.6 ENE 5 7 1017.8 - 0.0 - - 10 - - - -
03/03:00am 19.5 ENE 5 6 1017.8 - 0.0 - - 10 - - - -
03/02:30am 19.7 NE 5 6 1017.7 - 0.0 - - 10 - - - -
03/02:00am 19.1 NE 5 6 1017.8 - 0.0 - - 10 - - - -
03/01:30am 17.8 CALM 0 0 1018.0 - 0.0 - - 10 - - - -
03/01:00am 18.4 CALM 0 0 1018.1 - 0.0 - - 10 - - - -
03/12:30am 19.1 SSW 4 5 1018.3 - 0.0 - - 10 - - - -
03/12:00am 18.5 SSW 5 6 1018.2 - 0.0 - - 10 - - - -
 
Date/Time
WST
Temp

°C
Wind Pressure Rain
since 9am
mm
Weather Cloud Vis
km
Sea
Height
m
Swell
Dir
 
Speed
knots
Gust
knots
hPa Trend Height
m
Period
s
Dir
02/11:30pm 18.2 SW 4 4 1018.5 - 0.0 - - 10 - - - -
02/11:00pm 19.7 WSW 5 6 1018.7 - 0.0 - - 10 - - - -
02/10:30pm 20.5 W 5 6 1018.8 - 0.0 - - 10 - - - -
02/10:00pm 20.5 WSW 6 6 1019.0 - 0.0 - - 10 - - - -
02/09:30pm 21.1 WSW 6 7 1019.0 - 0.0 - - 10 - - - -
02/09:00pm 21.2 W 4 7 1019.1 - 0.0 - - 10 - - - -
02/08:30pm 22.0 WSW 9 11 1018.7 - 0.0 - - 10 - - - -
02/08:00pm 22.4 WSW 10 12 1018.5 - 0.0 - - 10 - - - -
02/07:30pm 22.5 WSW 11 14 1018.3 - 0.0 - - 10 - - - -
02/07:00pm 22.8 WSW 10 13 1018.1 - 0.0 - - 10 - - - -
02/06:30pm 23.2 W 10 13 1017.7 - 0.0 - - 10 - - - -
02/06:00pm 23.6 WSW 10 13 1017.6 - 0.0 - - 10 - - - -
02/05:30pm 25.1 W 10 12 1017.3 - 0.0 - - 10 - - - -
02/05:00pm 26.0 WNW 8 10 1017.4 - 0.0 - - 10 - - - -
02/04:30pm 27.5 NW 8 9 1017.1 - 0.0 - - 10 - - - -
02/04:00pm 26.9 NNW 10 13 1017.0 - 0.0 - - 10 - - - -
02/03:30pm 28.8 N 8 11 1017.0 - 0.0 - - 10 - - - -
02/03:00pm 29.9 NNE 8 10 1017.1 - 0.0 - - 10 - - - -
02/02:30pm 29.3 NNE 9 11 1017.3 - 0.0 - - 10 - - - -
02/02:00pm 29.2 N 8 11 1017.4 - 0.0 - - 10 - - - -
02/01:30pm 29.1 N 8 10 1017.6 - 0.0 - - 10 - - - -
02/01:00pm 29.0 N 7 9 1017.8 - 0.0 - - 10 - - - -
02/12:30pm 28.2 NNE 9 11 1018.2 - 0.0 - - 10 - - - -
02/12:00pm 27.0 NNE 8 11 1018.4 - 0.0 - - 10 - - - -
02/11:30am 27.5 NE 9 12 1018.6 - 0.0 - - 10 - - - -
02/11:00am 27.5 ENE 11 14 1019.0 - 0.0 - - 10 - - - -
02/10:30am 27.1 ENE 11 14 1019.4 - 0.0 - - 10 - - - -
02/10:00am 24.9 ENE 10 13 1019.7 - 0.0 - - 10 - - - -
02/09:30am 24.7 E 10 15 1019.6 - 0.0 - - 10 - - - -
02/09:00am 24.0 E 6 8 1019.4 - 0.0 - - 10 - - - -
02/08:30am 21.0 SSE 5 6 1019.2 - 0.0 - - 10 - - - -
02/08:00am 18.2 S 5 6 1019.1 - 0.0 - - 10 - - - -
02/07:30am 16.0 S 3 4 1018.8 - 0.0 - - 10 - - - -
02/07:00am 14.1 SSW 4 4 1018.3 - 0.0 - - 10 - - - -
02/06:30am 14.0 S 3 5 1018.0 - 0.0 - - 10 - - - -
02/06:00am 15.2 W 3 4 1017.8 - 0.0 - - 10 - - - -
02/05:30am 16.0 W 5 5 1017.2 - 0.0 - - 10 - - - -
02/05:00am 15.4 WSW 4 6 1017.0 - 0.0 - - 10 - - - -
02/04:30am 15.7 WSW 6 7 1017.0 - 0.0 - - 10 - - - -
02/04:00am 16.5 WSW 6 7 1017.0 - 0.0 - - 10 - - - -
02/03:30am 16.6 WSW 6 7 1017.0 - 0.0 - - 10 - - - -
02/03:00am 16.8 WSW 7 8 1017.1 - 0.0 - - 10 - - - -
02/02:30am 17.4 SW 7 7 1017.4 - 0.0 - - 10 - - - -
02/02:00am 18.6 WSW 7 8 1017.6 - 0.0 - - 10 - - - -
02/01:30am 19.0 WSW 9 11 1017.8 - 0.0 - - 10 - - - -
02/01:00am 19.4 WSW 10 12 1017.9 - 0.0 - - 10 - - - -
02/12:30am 19.4 WSW 10 12 1017.9 - 0.0 - - 10 - - - -
02/12:00am 19.7 WSW 10 12 1017.8 - 0.0 - - 10 - - - -
 
Date/Time
WST
Temp

°C
Wind Pressure Rain
since 9am
mm
Weather Cloud Vis
km
Sea
Height
m
Swell
Dir
 
Speed
knots
Gust
knots
hPa Trend Height
m
Period
s
Dir
01/11:30pm 20.0 WSW 10 11 1018.0 - 0.0 - - 10 - - - -
01/11:00pm 20.3 WSW 9 11 1018.0 - 0.0 - - 10 - - - -
01/10:30pm 20.4 WSW 9 11 1017.9 - 0.0 - - 10 - - - -
01/10:00pm 20.9 WSW 11 13 1017.9 - 0.0 - - 10 - - - -
01/09:30pm 21.3 WSW 12 15 1017.9 - 0.0 - - 10 - - - -
01/09:00pm 21.6 WSW 13 16 1017.7 - 0.0 - - 10 - - - -
01/08:30pm 22.0 WSW 13 15 1017.5 - 0.0 - - 10 - - - -
01/08:00pm 22.5 WSW 14 17 1017.2 - 0.0 - - 10 - - - -
01/07:30pm 22.9 WSW 16 20 1017.0 - 0.0 - - 10 - - - -
01/07:00pm 23.3 W 16 20 1016.6 - 0.0 - - 10 - - - -
01/06:30pm 23.9 W 14 18 1016.2 - 0.0 - - 10 - - - -
01/06:00pm 24.2 W 17 20 1015.9 - 0.0 - - 10 - - - -
01/05:30pm 25.0 W 17 21 1015.7 - 0.0 - - 10 - - - -
01/05:00pm 25.9 W 19 23 1015.5 - 0.0 - - 10 - - - -
01/04:30pm 25.8 W 18 21 1015.4 - 0.0 - - 10 - - - -
01/04:00pm 26.4 W 18 22 1015.3 - 0.0 - - 10 - - - -
01/03:30pm 27.3 W 19 23 1015.3 - 0.0 - - 10 - - - -
01/03:00pm 28.1 W 17 21 1015.3 - 0.0 - - 10 - - - -
01/02:30pm 28.0 W 17 20 1015.5 - 0.0 - - 10 - - - -
01/02:00pm 29.2 W 14 17 1015.6 - 0.0 - - 10 - - - -
01/01:30pm 29.5 W 12 16 1015.8 - 0.0 - - 10 - - - -
01/01:00pm 29.1 WSW 13 16 1016.2 - 0.0 - - 10 - - - -
01/12:30pm 29.2 WSW 14 18 1016.5 - 0.0 - - 10 - - - -
01/12:00pm 28.4 SW 13 17 1016.9 - 0.0 - - 10 - - - -
01/11:30am 28.0 SW 11 16 1017.3 - 0.0 - - 10 - - - -
01/11:00am 27.5 SW 13 19 1017.7 - 0.0 - - 10 - - - -
01/10:30am 27.4 SW 11 15 1018.0 - 0.0 - - 10 - - - -
01/10:00am 26.3 SSW 14 19 1018.1 - 0.0 - - 10 - - - -
01/09:30am 25.4 SSW 14 17 1018.0 - 0.0 - - 10 - - - -
01/09:00am 23.8 SSW 10 14 1017.9 - 0.0 - - 10 - - - -
01/08:30am 21.8 SW 7 9 1017.7 - 0.0 - - 10 - - - -
01/08:00am 20.7 WSW 5 7 1017.3 - 0.0 - - 10 - - - -
01/07:30am 19.3 WSW 7 8 1016.9 - 0.0 - - 10 - - - -
01/07:00am 18.3 WSW 6 7 1016.5 - 0.0 - - 10 - - - -
01/06:30am 18.6 WSW 7 9 1016.2 - 0.0 - - 10 - - - -
01/06:00am 18.5 WSW 7 9 1015.9 - 0.0 - - 10 - - - -
01/05:30am 17.5 WSW 1 4 1015.7 - 0.0 - - 10 - - - -
01/05:00am 17.7 WSW 4 5 1015.4 - 0.0 - - 10 - - - -
01/04:30am 18.3 WSW 7 8 1015.2 - 0.0 - - 10 - - - -
01/04:00am 18.7 WSW 7 8 1015.1 - 0.0 - - 10 - - - -
01/03:30am 19.2 WSW 7 9 1015.0 - 0.0 - - 10 - - - -
01/03:00am 19.4 WSW 7 8 1015.3 - 0.0 - - 10 - - - -
01/02:30am 20.0 WSW 8 9 1015.5 - 0.0 - - 10 - - - -
01/02:00am 20.3 WSW 9 12 1015.7 - 0.0 - - 10 - - - -
01/01:30am 20.6 WSW 10 13 1015.8 - 0.0 - - 10 - - - -
01/01:00am 20.7 WSW 10 13 1016.0 - 0.0 - - 10 - - - -
01/12:30am 20.8 WSW 9 11 1016.3 - 0.0 - - 10 - - - -
01/12:00am 20.8 SW 8 9 1016.4 - 0.0 - - 10 - - - -
 
Date/Time
WST
Temp

°C
Wind Pressure Rain
since 9am
mm
Weather Cloud Vis
km
Sea
Height
m
Swell
Dir
 
Speed
knots
Gust
knots
hPa Trend Height
m
Period
s
Dir
31/11:30pm 21.5 WSW 10 13 1016.4 - 0.0 - - 10 - - - -
31/11:00pm 21.9 WSW 12 17 1016.5 - 0.0 - Partly cloudy 10 - - - -
31/10:30pm 22.1 W 14 17 1016.4 - 0.0 - - 10 - - - -
31/10:00pm 22.2 W 13 16 1016.3 - 0.0 - - 10 - - - -
31/09:30pm 22.4 W 12 16 1016.3 - 0.0 - - 10 - - - -
31/09:00pm 22.7 W 13 17 1016.3 - 0.0 - - 10 - - - -
31/08:30pm 23.0 W 12 15 1016.2 - 0.0 - - 10 - - - -
31/08:00pm 23.0 WNW 9 11 1015.8 - 0.0 - - 10 - - - -
31/07:30pm 22.8 WNW 8 10 1015.4 - 0.0 - - 10 - - - -
31/07:00pm 23.0 WNW 8 11 1015.1 - 0.0 - - 10 - - - -

Other Formats:

Comma delimited format used in spreadsheet applications
http://www.bom.gov.au/fwo/IDW60701/IDW60701.95307.axf

JavaScript Object Notation format (JSON) in row-major order
http://www.bom.gov.au/fwo/IDW60701/IDW60701.95307.json